Terminal Aerodrome Forecast
Issued by NWS St Louis, MO

Home | Current Version | Previous Version | Text Only | Print | Product List | Glossary On
Versions: 1 2 3 4 5 6 7 8 9 10 11 12 13
000
FTUS43 KLSX 201100
TAFCOU
TAF
KCOU 201128Z 2012/2112 16008KT P6SM BKN250
     FM201500 19010KT P6SM BKN250
     FM210900 19006KT P6SM BKN080 PROB30 2109/2112 -SHRA=

USA.gov is the U.S. government's official web portal to all federal, state and local government web resources and services.